Larissa , Thessalia , Greece
39° 38' 00"N, 22° 25' 00"E, Elevation 263 ft.
Χειμερινή Time

Hourly observations for the last 48 hours

Date

Time

Temperature (°C) Humi-
dity
(%)
Wind
(kmph)
Pressure Rain (mm) Sun
(W/m2)
UV ET
(mm)
Air Dew 6 Hour 1 Hr 3 Hr 6 Hr Day
Alt
(in)
Sea
Level
(mb)
Max Min
24 09:00 5.7 -4.8 47 N 4 G 14 30.37 1028.4 0.00 72 0.0 0.457
24 08:00 5.4 -5.0 6.4 5.3 47 N 6 G 16 30.34 1027.6 0.00 0 0.0 0.406
24 07:00 5.5 -4.1 50 N 5 G 16 30.33 1027.0 0.00 0 0.0 0.356
24 06:00 5.7 -4.5 48 N 5 G 12 30.30 1026.1 0.00 0 0.0 0.305
24 05:00 5.7 -4.2 49 N 7 G 17 30.28 1025.5 0.00 0 0.0 0.254
24 04:00 6.0 -5.6 43 N 6 G 12 30.27 1025.1 0.00 0 0.0 0.203
24 03:00 6.1 -4.7 46 N 6 G 12 30.25 1024.6 0.00 0 0.0 0.102
24 02:00 6.4 -3.8 6.8 6.0 48 N 7 G 25 30.24 1024.0 0.00 0 0.0 0.051
24 01:00 6.7 -2.7 51 N 5 G 12 30.23 1023.6 0.00 0 0.0 0.000
24 00:00 6.6 -4.0 47 N 11 G 20 30.22 1023.4 0.00 0 0.0 1.422
23 23:00 6.1 -3.9 49 N 6 G 9 30.21 1023.1 0.00 0 0.0 1.372
23 22:00 6.4 -3.2 50 N 4 G 6 30.21 1022.9 0.00 0 0.0 1.346
23 21:00 6.7 -1.9 54 N 0 G 1 30.18 1022.0 0.00 0 0.0 1.321
23 20:00 6.6 -1.5 10.1 6.6 56 N 0 G 4 30.16 1021.5 0.00 0 0.0 1.295
23 19:00 6.8 -1.1 57 N 3 G 6 30.15 1020.9 0.00 0 0.0 1.295
23 18:00 7.3 -1.4 54 N 4 G 11 30.12 1019.9 0.00 0 0.0 1.245
23 17:00 8.8 -3.1 43 E 1 G 8 30.09 1019.1 0.00 53 0.0 1.219
23 16:00 9.6 -4.4 37 N 3 G 8 30.07 1018.3 0.00 92 0.0 1.168
23 15:00 9.9 -3.8 38 NNE 2 G 8 30.06 1017.8 0.00 401 0.0 1.067
23 14:00 9.4 -4.9 9.5 1.4 36 SSE 2 G 9 30.07 1018.2 0.00 262 0.0 0.914
23 13:00 9.2 -4.4 38 S 1 G 8 30.07 1018.4 0.00 362 0.0 0.762
23 12:00 7.4 -6.0 38 W 3 G 9 30.08 1018.5 0.00 456 0.0 0.559
23 11:00 6.3 -4.2 47 SSE 2 G 4 30.09 1018.9 0.00 384 0.0 0.381
23 10:00 3.6 -4.4 56 Calm 30.08 1018.7 0.00 203 0.0 0.254
23 09:00 1.4 -3.8 68 N 1 G 6 30.07 1018.2 0.00 126 0.0 0.203
23 08:00 1.8 -4.3 3.5 1.8 64 Calm 30.04 1017.2 0.00 22 0.0 0.178
23 07:00 2.2 -5.0 59 WSW 1 G 3 30.02 1016.6 0.00 0 0.0 0.178
23 06:00 2.2 -5.0 59 N 1 G 3 30.00 1015.8 0.00 0 0.0 0.152
23 05:00 2.0 -5.0 60 N 3 G 3 29.98 1015.2 0.00 0 0.0 0.127
23 04:00 2.9 -5.0 56 N 1 G 6 29.97 1014.9 0.00 0 0.0 0.102
23 03:00 3.1 -5.1 55 N 2 G 12 29.96 1014.6 0.00 0 0.0 0.076
23 02:00 3.5 -4.9 6.2 3.5 54 N 2 G 6 29.94 1014.1 0.00 0 0.0 0.051
23 01:00 4.1 -4.9 52 N 4 G 9 29.93 1013.5 0.00 0 0.0 0.025
23 00:00 4.8 -4.5 51 N 2 G 9 29.91 1013.0 3.61 0 0.0 0.000
22 23:00 4.7 -5.1 49 N 3 G 8 29.88 1012.0 3.61 0 0.0 1.803
22 22:00 5.3 -4.6 49 N 7 G 14 29.87 1011.5 3.61 0 0.0 1.753
22 21:00 5.7 -4.7 47 N 4 G 9 29.83 1010.4 3.61 0 0.0 1.702
22 20:00 6.2 -3.7 11.6 6.2 49 N 2 G 11 29.81 1009.6 3.61 0 0.0 1.651
22 19:00 6.8 -3.5 48 N 5 G 11 29.78 1008.4 3.61 0 0.0 1.600
22 18:00 7.8 -4.0 43 N 4 G 11 29.75 1007.5 3.61 0 0.0 1.549
22 17:00 9.2 -4.0 39 N 6 G 19 29.73 1006.6 3.61 22 0.0 1.499
22 16:00 10.7 -4.5 34 NW 7 G 16 29.69 1005.6 3.61 209 0.0 1.397
22 15:00 11.3 -3.3 36 NNW 7 G 12 29.67 1004.7 3.61 278 0.0 1.245
22 14:00 11.4 -3.9 11.4 6.6 34 N 9 G 12 29.65 1004.2 3.61 424 0.0 1.041
22 13:00 10.9 -3.2 37 NNW 6 G 12 29.65 1004.1 3.61 460 0.0 0.838
22 12:00 10.1 -2.3 42 NNW 6 G 19 29.66 1004.3 3.61 449 0.0 0.610
22 11:00 9.0 -1.1 49 NW 6 G 19 29.64 1003.6 3.61 386 0.0 0.406
22 10:00 8.0 -1.3 52 NNW 6 G 22 29.62 1003.0 3.61 276 0.0 0.254

Data generated by WxSolution Version 1.8.4.2, Build 2009.03.29.